sensor_id;sensor_type;location;lat;lon;timestamp;P1;durP1;ratioP1;P2;durP2;ratioP2
43823;SDS011;29470;53.550;9.926;2023-07-13T00:03:18;10.43;;;6.60;;
43823;SDS011;29470;53.550;9.926;2023-07-13T00:08:21;5.93;;;3.92;;
43823;SDS011;29470;53.550;9.926;2023-07-13T00:13:24;7.00;;;4.32;;
43823;SDS011;29470;53.550;9.926;2023-07-13T00:18:29;7.20;;;4.32;;
43823;SDS011;29470;53.550;9.926;2023-07-13T00:23:32;10.38;;;5.57;;
43823;SDS011;29470;53.550;9.926;2023-07-13T00:28:36;4.57;;;3.72;;
43823;SDS011;29470;53.550;9.926;2023-07-13T00:33:41;4.90;;;3.10;;
43823;SDS011;29470;53.550;9.926;2023-07-13T00:38:45;7.38;;;3.88;;
43823;SDS011;29470;53.550;9.926;2023-07-13T00:43:48;7.88;;;3.28;;
43823;SDS011;29470;53.550;9.926;2023-07-13T00:48:53;10.52;;;3.33;;
43823;SDS011;29470;53.550;9.926;2023-07-13T00:53:59;6.13;;;3.30;;
43823;SDS011;29470;53.550;9.926;2023-07-13T00:59:06;7.10;;;3.65;;
43823;SDS011;29470;53.550;9.926;2023-07-13T01:04:15;6.80;;;3.30;;
43823;SDS011;29470;53.550;9.926;2023-07-13T01:09:19;5.65;;;4.47;;
43823;SDS011;29470;53.550;9.926;2023-07-13T01:14:23;6.85;;;4.20;;
43823;SDS011;29470;53.550;9.926;2023-07-13T01:19:30;5.63;;;4.07;;
43823;SDS011;29470;53.550;9.926;2023-07-13T01:24:40;8.40;;;4.25;;
43823;SDS011;29470;53.550;9.926;2023-07-13T01:29:44;7.38;;;5.10;;
43823;SDS011;29470;53.550;9.926;2023-07-13T01:34:48;8.02;;;5.65;;
43823;SDS011;29470;53.550;9.926;2023-07-13T01:39:52;9.27;;;6.07;;
43823;SDS011;29470;53.550;9.926;2023-07-13T01:44:57;9.15;;;5.35;;
43823;SDS011;29470;53.550;9.926;2023-07-13T01:49:59;9.63;;;5.60;;
43823;SDS011;29470;53.550;9.926;2023-07-13T01:55:04;10.75;;;6.38;;
43823;SDS011;29470;53.550;9.926;2023-07-13T02:00:09;11.05;;;6.00;;
43823;SDS011;29470;53.550;9.926;2023-07-13T02:05:16;9.95;;;6.00;;
43823;SDS011;29470;53.550;9.926;2023-07-13T02:10:22;9.60;;;6.53;;
43823;SDS011;29470;53.550;9.926;2023-07-13T02:15:25;11.85;;;6.57;;
43823;SDS011;29470;53.550;9.926;2023-07-13T02:20:28;9.63;;;6.22;;
43823;SDS011;29470;53.550;9.926;2023-07-13T02:25:32;7.53;;;5.15;;
43823;SDS011;29470;53.550;9.926;2023-07-13T02:30:35;9.15;;;5.90;;
43823;SDS011;29470;53.550;9.926;2023-07-13T02:35:38;8.38;;;5.38;;
43823;SDS011;29470;53.550;9.926;2023-07-13T02:40:43;8.10;;;5.20;;
43823;SDS011;29470;53.550;9.926;2023-07-13T02:45:46;8.13;;;5.43;;
43823;SDS011;29470;53.550;9.926;2023-07-13T02:50:49;9.77;;;6.07;;
43823;SDS011;29470;53.550;9.926;2023-07-13T02:55:53;8.23;;;5.05;;
43823;SDS011;29470;53.550;9.926;2023-07-13T03:00:56;6.70;;;4.70;;
43823;SDS011;29470;53.550;9.926;2023-07-13T03:06:01;7.72;;;5.50;;
43823;SDS011;29470;53.550;9.926;2023-07-13T03:11:15;7.85;;;5.20;;
43823;SDS011;29470;53.550;9.926;2023-07-13T03:16:25;8.55;;;5.40;;
43823;SDS011;29470;53.550;9.926;2023-07-13T03:21:28;9.68;;;5.05;;
43823;SDS011;29470;53.550;9.926;2023-07-13T03:26:33;11.13;;;7.03;;
43823;SDS011;29470;53.550;9.926;2023-07-13T03:31:37;9.18;;;5.10;;
43823;SDS011;29470;53.550;9.926;2023-07-13T03:36:40;5.95;;;4.38;;
43823;SDS011;29470;53.550;9.926;2023-07-13T03:41:47;7.07;;;4.80;;
43823;SDS011;29470;53.550;9.926;2023-07-13T03:46:51;8.38;;;5.28;;
43823;SDS011;29470;53.550;9.926;2023-07-13T03:51:54;9.98;;;4.75;;
43823;SDS011;29470;53.550;9.926;2023-07-13T03:56:58;8.32;;;4.10;;
43823;SDS011;29470;53.550;9.926;2023-07-13T04:02:04;8.43;;;3.83;;
43823;SDS011;29470;53.550;9.926;2023-07-13T04:07:08;8.98;;;3.63;;
43823;SDS011;29470;53.550;9.926;2023-07-13T04:12:15;9.75;;;3.67;;
43823;SDS011;29470;53.550;9.926;2023-07-13T04:17:17;7.25;;;3.95;;
43823;SDS011;29470;53.550;9.926;2023-07-13T04:22:20;12.27;;;3.95;;
43823;SDS011;29470;53.550;9.926;2023-07-13T04:27:25;8.10;;;4.40;;
43823;SDS011;29470;53.550;9.926;2023-07-13T04:32:27;13.35;;;4.20;;
43823;SDS011;29470;53.550;9.926;2023-07-13T04:37:30;11.02;;;4.75;;
43823;SDS011;29470;53.550;9.926;2023-07-13T04:42:35;7.10;;;4.05;;
43823;SDS011;29470;53.550;9.926;2023-07-13T04:47:38;11.32;;;3.92;;
43823;SDS011;29470;53.550;9.926;2023-07-13T04:52:41;9.45;;;4.15;;
43823;SDS011;29470;53.550;9.926;2023-07-13T04:57:46;5.97;;;4.15;;
43823;SDS011;29470;53.550;9.926;2023-07-13T05:02:50;6.00;;;4.00;;
43823;SDS011;29470;53.550;9.926;2023-07-13T05:07:54;8.73;;;4.40;;
43823;SDS011;29470;53.550;9.926;2023-07-13T05:12:58;8.32;;;4.35;;
43823;SDS011;29470;53.550;9.926;2023-07-13T05:18:01;8.30;;;3.63;;
43823;SDS011;29470;53.550;9.926;2023-07-13T05:23:04;13.38;;;4.60;;
43823;SDS011;29470;53.550;9.926;2023-07-13T05:28:08;8.90;;;4.57;;
43823;SDS011;29470;53.550;9.926;2023-07-13T05:33:11;9.80;;;3.92;;
43823;SDS011;29470;53.550;9.926;2023-07-13T05:38:14;8.98;;;4.50;;
43823;SDS011;29470;53.550;9.926;2023-07-13T05:43:18;10.75;;;4.35;;
43823;SDS011;29470;53.550;9.926;2023-07-13T05:48:21;11.60;;;4.28;;
43823;SDS011;29470;53.550;9.926;2023-07-13T05:53:24;12.55;;;4.15;;
43823;SDS011;29470;53.550;9.926;2023-07-13T05:58:28;10.77;;;3.60;;
43823;SDS011;29470;53.550;9.926;2023-07-13T06:03:31;12.63;;;3.92;;
43823;SDS011;29470;53.550;9.926;2023-07-13T06:08:34;9.85;;;4.38;;
43823;SDS011;29470;53.550;9.926;2023-07-13T06:13:39;9.95;;;4.32;;
43823;SDS011;29470;53.550;9.926;2023-07-13T06:18:42;12.75;;;4.32;;
43823;SDS011;29470;53.550;9.926;2023-07-13T06:23:46;12.40;;;4.07;;
43823;SDS011;29470;53.550;9.926;2023-07-13T06:28:51;11.38;;;4.05;;
43823;SDS011;29470;53.550;9.926;2023-07-13T06:33:55;10.43;;;3.90;;
43823;SDS011;29470;53.550;9.926;2023-07-13T06:38:57;7.57;;;3.47;;
43823;SDS011;29470;53.550;9.926;2023-07-13T06:44:02;11.88;;;4.43;;
43823;SDS011;29470;53.550;9.926;2023-07-13T06:49:05;11.95;;;4.07;;
43823;SDS011;29470;53.550;9.926;2023-07-13T06:54:07;10.15;;;3.33;;
43823;SDS011;29470;53.550;9.926;2023-07-13T06:59:12;10.07;;;3.67;;
43823;SDS011;29470;53.550;9.926;2023-07-13T07:04:15;9.18;;;3.65;;
43823;SDS011;29470;53.550;9.926;2023-07-13T07:09:17;14.32;;;3.75;;
43823;SDS011;29470;53.550;9.926;2023-07-13T07:14:22;10.07;;;5.20;;
43823;SDS011;29470;53.550;9.926;2023-07-13T07:19:24;10.52;;;3.53;;
43823;SDS011;29470;53.550;9.926;2023-07-13T07:24:28;9.15;;;2.95;;
43823;SDS011;29470;53.550;9.926;2023-07-13T07:29:32;9.15;;;2.30;;
43823;SDS011;29470;53.550;9.926;2023-07-13T07:34:38;10.73;;;3.30;;
43823;SDS011;29470;53.550;9.926;2023-07-13T07:39:41;11.80;;;3.45;;
43823;SDS011;29470;53.550;9.926;2023-07-13T07:45:07;6.80;;;2.28;;
43823;SDS011;29470;53.550;9.926;2023-07-13T07:50:12;11.23;;;2.50;;
43823;SDS011;29470;53.550;9.926;2023-07-13T07:55:16;9.75;;;2.42;;
43823;SDS011;29470;53.550;9.926;2023-07-13T08:00:23;8.80;;;2.07;;
43823;SDS011;29470;53.550;9.926;2023-07-13T08:05:46;7.90;;;2.35;;
43823;SDS011;29470;53.550;9.926;2023-07-13T08:11:09;8.60;;;2.15;;
43823;SDS011;29470;53.550;9.926;2023-07-13T08:16:17;6.82;;;2.75;;
43823;SDS011;29470;53.550;9.926;2023-07-13T08:21:20;6.82;;;2.33;;
43823;SDS011;29470;53.550;9.926;2023-07-13T08:26:23;7.55;;;2.30;;
43823;SDS011;29470;53.550;9.926;2023-07-13T08:31:27;9.10;;;2.63;;
43823;SDS011;29470;53.550;9.926;2023-07-13T08:36:30;7.95;;;2.40;;
43823;SDS011;29470;53.550;9.926;2023-07-13T08:41:33;5.88;;;2.20;;
43823;SDS011;29470;53.550;9.926;2023-07-13T08:46:38;8.43;;;2.58;;
43823;SDS011;29470;53.550;9.926;2023-07-13T08:51:45;6.80;;;2.47;;
43823;SDS011;29470;53.550;9.926;2023-07-13T08:56:52;9.55;;;3.40;;
43823;SDS011;29470;53.550;9.926;2023-07-13T09:02:08;7.85;;;2.50;;
43823;SDS011;29470;53.550;9.926;2023-07-13T09:07:26;9.52;;;3.40;;
43823;SDS011;29470;53.550;9.926;2023-07-13T09:12:47;8.10;;;2.10;;
43823;SDS011;29470;53.550;9.926;2023-07-13T09:18:02;6.13;;;2.73;;
43823;SDS011;29470;53.550;9.926;2023-07-13T09:23:11;7.97;;;2.25;;
43823;SDS011;29470;53.550;9.926;2023-07-13T09:28:20;5.30;;;2.03;;
43823;SDS011;29470;53.550;9.926;2023-07-13T09:33:28;8.07;;;2.70;;
43823;SDS011;29470;53.550;9.926;2023-07-13T09:38:32;7.00;;;2.20;;
43823;SDS011;29470;53.550;9.926;2023-07-13T09:43:35;9.75;;;2.55;;
43823;SDS011;29470;53.550;9.926;2023-07-13T09:48:39;6.97;;;2.40;;
43823;SDS011;29470;53.550;9.926;2023-07-13T09:53:45;4.63;;;2.22;;
43823;SDS011;29470;53.550;9.926;2023-07-13T09:58:48;8.43;;;2.75;;
43823;SDS011;29470;53.550;9.926;2023-07-13T10:03:53;8.82;;;2.83;;
43823;SDS011;29470;53.550;9.926;2023-07-13T10:08:56;7.50;;;2.70;;
43823;SDS011;29470;53.550;9.926;2023-07-13T10:14:00;7.38;;;2.47;;
43823;SDS011;29470;53.550;9.926;2023-07-13T10:19:10;6.53;;;1.83;;
43823;SDS011;29470;53.550;9.926;2023-07-13T10:24:18;6.75;;;2.40;;
43823;SDS011;29470;53.550;9.926;2023-07-13T10:29:25;5.28;;;2.67;;
43823;SDS011;29470;53.550;9.926;2023-07-13T10:34:31;6.70;;;2.28;;
43823;SDS011;29470;53.550;9.926;2023-07-13T10:39:34;6.30;;;2.10;;
43823;SDS011;29470;53.550;9.926;2023-07-13T10:44:39;6.25;;;2.05;;
43823;SDS011;29470;53.550;9.926;2023-07-13T10:49:43;6.38;;;2.00;;
43823;SDS011;29470;53.550;9.926;2023-07-13T10:54:48;5.85;;;2.20;;
43823;SDS011;29470;53.550;9.926;2023-07-13T11:05:29;4.47;;;2.50;;
43823;SDS011;29470;53.550;9.926;2023-07-13T11:10:46;2.90;;;1.75;;
43823;SDS011;29470;53.550;9.926;2023-07-13T11:15:51;5.82;;;1.80;;
43823;SDS011;29470;53.550;9.926;2023-07-13T11:21:03;4.95;;;1.80;;
43823;SDS011;29470;53.550;9.926;2023-07-13T11:26:40;5.43;;;1.90;;
43823;SDS011;29470;53.550;9.926;2023-07-13T11:31:47;5.72;;;1.90;;
43823;SDS011;29470;53.550;9.926;2023-07-13T11:36:56;3.15;;;1.50;;
43823;SDS011;29470;53.550;9.926;2023-07-13T11:42:01;5.43;;;1.95;;
43823;SDS011;29470;53.550;9.926;2023-07-13T11:47:08;10.38;;;2.30;;
43823;SDS011;29470;53.550;9.926;2023-07-13T11:52:14;5.43;;;1.77;;
43823;SDS011;29470;53.550;9.926;2023-07-13T11:57:22;4.93;;;1.95;;
43823;SDS011;29470;53.550;9.926;2023-07-13T12:02:28;6.07;;;1.80;;
43823;SDS011;29470;53.550;9.926;2023-07-13T12:07:35;4.75;;;2.15;;
43823;SDS011;29470;53.550;9.926;2023-07-13T12:12:40;5.30;;;2.00;;
43823;SDS011;29470;53.550;9.926;2023-07-13T12:17:49;5.70;;;1.60;;
43823;SDS011;29470;53.550;9.926;2023-07-13T12:22:54;7.82;;;2.60;;
43823;SDS011;29470;53.550;9.926;2023-07-13T12:27:57;6.97;;;2.45;;
43823;SDS011;29470;53.550;9.926;2023-07-13T12:33:00;9.50;;;3.17;;
43823;SDS011;29470;53.550;9.926;2023-07-13T12:38:07;7.78;;;2.55;;
43823;SDS011;29470;53.550;9.926;2023-07-13T12:43:12;7.72;;;2.38;;
43823;SDS011;29470;53.550;9.926;2023-07-13T12:48:16;5.30;;;2.50;;
43823;SDS011;29470;53.550;9.926;2023-07-13T12:53:29;6.15;;;2.25;;
43823;SDS011;29470;53.550;9.926;2023-07-13T12:58:36;6.45;;;2.38;;
43823;SDS011;29470;53.550;9.926;2023-07-13T13:03:44;5.20;;;2.50;;
43823;SDS011;29470;53.550;9.926;2023-07-13T13:08:51;5.22;;;2.30;;
43823;SDS011;29470;53.550;9.926;2023-07-13T13:13:56;5.70;;;2.10;;
43823;SDS011;29470;53.550;9.926;2023-07-13T13:19:00;3.67;;;2.10;;
43823;SDS011;29470;53.550;9.926;2023-07-13T13:24:16;6.25;;;2.15;;
43823;SDS011;29470;53.550;9.926;2023-07-13T13:29:22;4.33;;;1.93;;
43823;SDS011;29470;53.550;9.926;2023-07-13T13:34:26;3.95;;;2.00;;
43823;SDS011;29470;53.550;9.926;2023-07-13T13:39:31;4.72;;;1.75;;
43823;SDS011;29470;53.550;9.926;2023-07-13T13:44:36;4.63;;;1.80;;
43823;SDS011;29470;53.550;9.926;2023-07-13T13:49:39;4.63;;;2.30;;
43823;SDS011;29470;53.550;9.926;2023-07-13T13:54:44;3.67;;;1.70;;
43823;SDS011;29470;53.550;9.926;2023-07-13T13:59:46;3.50;;;2.05;;
43823;SDS011;29470;53.550;9.926;2023-07-13T14:04:50;3.67;;;1.70;;
43823;SDS011;29470;53.550;9.926;2023-07-13T14:09:59;3.15;;;2.08;;
43823;SDS011;29470;53.550;9.926;2023-07-13T14:15:03;3.38;;;1.80;;
43823;SDS011;29470;53.550;9.926;2023-07-13T14:20:09;4.68;;;1.90;;
43823;SDS011;29470;53.550;9.926;2023-07-13T14:25:15;3.70;;;2.00;;
43823;SDS011;29470;53.550;9.926;2023-07-13T14:30:20;5.35;;;1.90;;
43823;SDS011;29470;53.550;9.926;2023-07-13T14:35:24;3.92;;;1.95;;
43823;SDS011;29470;53.550;9.926;2023-07-13T14:40:29;4.28;;;1.85;;
43823;SDS011;29470;53.550;9.926;2023-07-13T14:45:33;3.20;;;2.00;;
43823;SDS011;29470;53.550;9.926;2023-07-13T14:50:37;3.75;;;1.90;;
43823;SDS011;29470;53.550;9.926;2023-07-13T14:55:42;5.47;;;2.60;;
43823;SDS011;29470;53.550;9.926;2023-07-13T15:00:45;5.13;;;2.40;;
43823;SDS011;29470;53.550;9.926;2023-07-13T15:05:49;3.15;;;2.10;;
43823;SDS011;29470;53.550;9.926;2023-07-13T15:10:55;5.88;;;2.38;;
43823;SDS011;29470;53.550;9.926;2023-07-13T15:16:01;3.13;;;2.13;;
43823;SDS011;29470;53.550;9.926;2023-07-13T15:21:08;3.65;;;2.00;;
43823;SDS011;29470;53.550;9.926;2023-07-13T15:26:13;4.05;;;2.00;;
43823;SDS011;29470;53.550;9.926;2023-07-13T15:31:18;4.22;;;1.88;;
43823;SDS011;29470;53.550;9.926;2023-07-13T15:36:23;6.32;;;2.08;;
43823;SDS011;29470;53.550;9.926;2023-07-13T15:41:29;2.78;;;1.70;;
43823;SDS011;29470;53.550;9.926;2023-07-13T15:46:34;5.78;;;2.10;;
43823;SDS011;29470;53.550;9.926;2023-07-13T15:51:36;4.60;;;2.00;;
43823;SDS011;29470;53.550;9.926;2023-07-13T15:56:41;3.47;;;1.80;;
43823;SDS011;29470;53.550;9.926;2023-07-13T16:01:46;3.72;;;1.50;;
43823;SDS011;29470;53.550;9.926;2023-07-13T16:06:50;4.25;;;1.60;;
43823;SDS011;29470;53.550;9.926;2023-07-13T16:11:54;3.83;;;1.60;;
43823;SDS011;29470;53.550;9.926;2023-07-13T16:16:59;3.25;;;1.30;;
43823;SDS011;29470;53.550;9.926;2023-07-13T16:22:02;3.20;;;1.50;;
43823;SDS011;29470;53.550;9.926;2023-07-13T16:27:09;4.97;;;1.75;;
43823;SDS011;29470;53.550;9.926;2023-07-13T16:32:13;3.63;;;1.30;;
43823;SDS011;29470;53.550;9.926;2023-07-13T16:37:17;3.67;;;1.55;;
43823;SDS011;29470;53.550;9.926;2023-07-13T16:42:23;4.40;;;1.50;;
43823;SDS011;29470;53.550;9.926;2023-07-13T16:47:26;3.92;;;1.75;;
43823;SDS011;29470;53.550;9.926;2023-07-13T16:52:29;3.72;;;2.00;;
43823;SDS011;29470;53.550;9.926;2023-07-13T16:57:33;5.00;;;2.08;;
43823;SDS011;29470;53.550;9.926;2023-07-13T17:02:38;4.82;;;1.58;;
43823;SDS011;29470;53.550;9.926;2023-07-13T17:07:42;3.80;;;1.55;;
43823;SDS011;29470;53.550;9.926;2023-07-13T17:12:49;3.72;;;1.70;;
43823;SDS011;29470;53.550;9.926;2023-07-13T17:17:52;3.83;;;1.50;;
43823;SDS011;29470;53.550;9.926;2023-07-13T17:23:11;4.18;;;1.52;;
43823;SDS011;29470;53.550;9.926;2023-07-13T17:28:18;5.95;;;1.88;;
43823;SDS011;29470;53.550;9.926;2023-07-13T17:33:25;7.97;;;3.40;;
43823;SDS011;29470;53.550;9.926;2023-07-13T17:38:31;5.38;;;2.08;;
43823;SDS011;29470;53.550;9.926;2023-07-13T17:43:43;4.60;;;2.08;;
43823;SDS011;29470;53.550;9.926;2023-07-13T17:48:48;4.28;;;1.85;;
43823;SDS011;29470;53.550;9.926;2023-07-13T17:53:52;2.90;;;1.85;;
43823;SDS011;29470;53.550;9.926;2023-07-13T17:58:58;7.13;;;2.00;;
43823;SDS011;29470;53.550;9.926;2023-07-13T18:04:01;3.17;;;1.63;;
43823;SDS011;29470;53.550;9.926;2023-07-13T18:09:13;3.10;;;1.50;;
43823;SDS011;29470;53.550;9.926;2023-07-13T18:14:18;4.55;;;1.90;;
43823;SDS011;29470;53.550;9.926;2023-07-13T18:19:25;3.28;;;1.85;;
43823;SDS011;29470;53.550;9.926;2023-07-13T18:24:32;3.80;;;1.75;;
43823;SDS011;29470;53.550;9.926;2023-07-13T18:29:36;3.80;;;1.80;;
43823;SDS011;29470;53.550;9.926;2023-07-13T18:34:40;6.22;;;1.67;;
43823;SDS011;29470;53.550;9.926;2023-07-13T18:39:44;3.97;;;1.77;;
43823;SDS011;29470;53.550;9.926;2023-07-13T18:44:48;4.47;;;1.70;;
43823;SDS011;29470;53.550;9.926;2023-07-13T18:49:52;6.00;;;2.35;;
43823;SDS011;29470;53.550;9.926;2023-07-13T18:54:57;5.03;;;2.30;;
43823;SDS011;29470;53.550;9.926;2023-07-13T19:00:02;7.50;;;2.58;;
43823;SDS011;29470;53.550;9.926;2023-07-13T19:05:12;6.20;;;2.67;;
43823;SDS011;29470;53.550;9.926;2023-07-13T19:10:20;4.63;;;2.35;;
43823;SDS011;29470;53.550;9.926;2023-07-13T19:15:27;6.90;;;4.57;;
43823;SDS011;29470;53.550;9.926;2023-07-13T19:20:32;4.47;;;3.00;;
43823;SDS011;29470;53.550;9.926;2023-07-13T19:25:35;8.65;;;4.35;;
43823;SDS011;29470;53.550;9.926;2023-07-13T19:30:40;5.82;;;3.70;;
43823;SDS011;29470;53.550;9.926;2023-07-13T19:35:43;6.80;;;3.88;;
43823;SDS011;29470;53.550;9.926;2023-07-13T19:40:47;8.35;;;4.75;;
43823;SDS011;29470;53.550;9.926;2023-07-13T19:45:51;4.47;;;2.05;;
43823;SDS011;29470;53.550;9.926;2023-07-13T19:50:55;4.90;;;3.70;;
43823;SDS011;29470;53.550;9.926;2023-07-13T19:55:58;5.22;;;3.30;;
43823;SDS011;29470;53.550;9.926;2023-07-13T20:01:03;4.60;;;3.22;;
43823;SDS011;29470;53.550;9.926;2023-07-13T20:06:26;3.92;;;2.45;;
43823;SDS011;29470;53.550;9.926;2023-07-13T20:11:30;3.08;;;1.65;;
43823;SDS011;29470;53.550;9.926;2023-07-13T20:16:34;4.15;;;1.90;;
43823;SDS011;29470;53.550;9.926;2023-07-13T20:21:38;5.15;;;2.10;;
43823;SDS011;29470;53.550;9.926;2023-07-13T20:26:41;2.83;;;1.80;;
43823;SDS011;29470;53.550;9.926;2023-07-13T20:31:46;2.65;;;2.00;;
43823;SDS011;29470;53.550;9.926;2023-07-13T20:36:51;3.88;;;2.88;;
43823;SDS011;29470;53.550;9.926;2023-07-13T20:41:55;5.60;;;3.45;;
43823;SDS011;29470;53.550;9.926;2023-07-13T20:47:00;7.00;;;3.00;;
43823;SDS011;29470;53.550;9.926;2023-07-13T20:52:04;6.43;;;2.83;;
43823;SDS011;29470;53.550;9.926;2023-07-13T21:02:22;4.57;;;2.95;;
43823;SDS011;29470;53.550;9.926;2023-07-13T21:07:33;8.45;;;6.03;;
43823;SDS011;29470;53.550;9.926;2023-07-13T21:12:36;5.90;;;4.05;;
43823;SDS011;29470;53.550;9.926;2023-07-13T21:17:40;11.88;;;5.55;;
43823;SDS011;29470;53.550;9.926;2023-07-13T21:22:43;5.65;;;3.63;;
43823;SDS011;29470;53.550;9.926;2023-07-13T21:27:48;6.97;;;3.45;;
43823;SDS011;29470;53.550;9.926;2023-07-13T21:32:54;5.13;;;3.50;;
43823;SDS011;29470;53.550;9.926;2023-07-13T21:38:01;8.82;;;6.07;;
43823;SDS011;29470;53.550;9.926;2023-07-13T21:43:04;4.18;;;3.67;;
43823;SDS011;29470;53.550;9.926;2023-07-13T21:48:08;5.35;;;3.60;;
43823;SDS011;29470;53.550;9.926;2023-07-13T21:53:19;6.35;;;4.03;;
43823;SDS011;29470;53.550;9.926;2023-07-13T21:58:25;6.57;;;3.90;;
43823;SDS011;29470;53.550;9.926;2023-07-13T22:03:33;7.28;;;4.35;;
43823;SDS011;29470;53.550;9.926;2023-07-13T22:13:40;6.10;;;4.47;;
43823;SDS011;29470;53.550;9.926;2023-07-13T22:18:45;5.88;;;4.47;;
43823;SDS011;29470;53.550;9.926;2023-07-13T22:23:49;6.88;;;4.40;;
43823;SDS011;29470;53.550;9.926;2023-07-13T22:28:52;8.25;;;4.68;;
43823;SDS011;29470;53.550;9.926;2023-07-13T22:33:58;6.40;;;4.50;;
43823;SDS011;29470;53.550;9.926;2023-07-13T22:39:02;6.70;;;4.78;;
43823;SDS011;29470;53.550;9.926;2023-07-13T22:44:09;10.10;;;4.63;;
43823;SDS011;29470;53.550;9.926;2023-07-13T22:49:18;7.95;;;4.60;;
43823;SDS011;29470;53.550;9.926;2023-07-13T22:54:23;6.70;;;5.13;;
43823;SDS011;29470;53.550;9.926;2023-07-13T22:59:27;9.05;;;4.68;;
43823;SDS011;29470;53.550;9.926;2023-07-13T23:04:32;6.32;;;5.18;;
43823;SDS011;29470;53.550;9.926;2023-07-13T23:09:36;7.25;;;4.90;;
43823;SDS011;29470;53.550;9.926;2023-07-13T23:14:46;8.95;;;5.43;;
43823;SDS011;29470;53.550;9.926;2023-07-13T23:19:50;7.57;;;5.30;;
43823;SDS011;29470;53.550;9.926;2023-07-13T23:24:53;10.43;;;6.22;;
43823;SDS011;29470;53.550;9.926;2023-07-13T23:29:56;7.95;;;5.53;;
43823;SDS011;29470;53.550;9.926;2023-07-13T23:35:00;9.60;;;5.65;;
43823;SDS011;29470;53.550;9.926;2023-07-13T23:40:10;9.20;;;5.72;;
43823;SDS011;29470;53.550;9.926;2023-07-13T23:45:16;11.85;;;6.38;;
43823;SDS011;29470;53.550;9.926;2023-07-13T23:50:22;9.05;;;5.90;;
43823;SDS011;29470;53.550;9.926;2023-07-13T23:55:28;8.48;;;5.70;;
